createdAt,value
2018-01-26T00:00:20.159Z,98.03
2018-01-26T00:01:00.747Z,98.32
2018-01-26T00:01:41.330Z,98.32
2018-01-26T00:02:21.898Z,98.32
2018-01-26T00:03:02.488Z,98.32
2018-01-26T00:03:43.109Z,97.84
2018-01-26T00:04:23.658Z,97.93
2018-01-26T00:05:04.236Z,98.13
2018-01-26T00:05:44.808Z,98.03
2018-01-26T00:06:25.367Z,98.5
2018-01-26T00:07:05.943Z,98.41
2018-01-26T00:07:46.502Z,98.22
2018-01-26T00:08:27.076Z,97.17
2018-01-26T00:09:07.649Z,96.89
2018-01-26T00:09:48.278Z,97.36
2018-01-26T00:10:28.849Z,98.32
2018-01-26T00:11:09.417Z,97.36
2018-01-26T00:11:49.980Z,97.84
2018-01-26T00:12:30.547Z,97.84
2018-01-26T00:13:11.119Z,97.65
2018-01-26T00:13:51.692Z,97.65
2018-01-26T00:14:32.269Z,97.84
2018-01-26T00:15:12.846Z,97.84
2018-01-26T00:15:53.419Z,97.74
2018-01-26T00:16:33.977Z,97.17
2018-01-26T00:17:14.546Z,97.74
2018-01-26T00:17:55.159Z,97.36
2018-01-26T00:18:35.728Z,97.46
2018-01-26T00:19:16.315Z,97.36
2018-01-26T00:19:56.908Z,97.36
2018-01-26T00:20:37.476Z,97.65
2018-01-26T00:21:18.036Z,97.17
2018-01-26T00:21:58.605Z,97.46
2018-01-26T00:22:39.163Z,97.27
2018-01-26T00:23:19.775Z,97.46
2018-01-26T00:24:00.370Z,97.27
2018-01-26T00:24:40.960Z,97.27
2018-01-26T00:25:21.523Z,97.46
2018-01-26T00:26:02.107Z,97.36
2018-01-26T00:26:42.687Z,97.65
2018-01-26T00:27:23.258Z,96.89
2018-01-26T00:28:03.819Z,97.46
2018-01-26T00:28:44.380Z,96.51
2018-01-26T00:29:24.931Z,96.98
2018-01-26T00:30:05.537Z,96.89
2018-01-26T00:30:46.107Z,96.79
2018-01-26T00:31:26.668Z,96.89
2018-01-26T00:32:07.244Z,96.79
2018-01-26T00:32:47.824Z,97.08
2018-01-26T00:33:28.427Z,96.79
2018-01-26T00:34:09.003Z,96.98
2018-01-26T00:34:49.574Z,97.27
2018-01-26T00:35:30.151Z,97.36
2018-01-26T00:36:10.699Z,97.08
2018-01-26T00:36:51.268Z,97.27
2018-01-26T00:37:31.848Z,97.08
2018-01-26T00:38:12.417Z,97.17
2018-01-26T00:38:53.016Z,97.27
2018-01-26T00:39:33.580Z,97.17
2018-01-26T00:40:14.157Z,97.65
2018-01-26T00:40:54.755Z,97.17
2018-01-26T00:41:35.434Z,96.98
2018-01-26T00:42:16.010Z,97.65
2018-01-26T00:42:56.588Z,97.36
2018-01-26T00:43:37.201Z,97.46
2018-01-26T00:44:17.773Z,97.17
2018-01-26T00:44:58.382Z,97.17
2018-01-26T00:45:39.006Z,97.27
2018-01-26T00:46:19.595Z,96.98
2018-01-26T00:47:00.164Z,97.74
2018-01-26T00:47:40.731Z,97.17
2018-01-26T00:48:21.347Z,97.93
2018-01-26T00:49:01.920Z,97.84
2018-01-26T00:49:42.478Z,97.93
2018-01-26T00:50:23.085Z,97.84
2018-01-26T00:51:03.652Z,97.74
2018-01-26T00:51:44.223Z,97.93
2018-01-26T00:52:24.807Z,97.93
2018-01-26T00:53:05.370Z,97.46
2018-01-26T00:53:45.951Z,97.84
2018-01-26T00:54:26.534Z,97.36
2018-01-26T00:55:07.104Z,98.03
2018-01-26T00:55:47.671Z,98.03
2018-01-26T00:56:28.224Z,98.22
2018-01-26T00:57:08.808Z,97.36
2018-01-26T00:57:49.370Z,97.46
2018-01-26T00:58:29.945Z,97.65
2018-01-26T00:59:10.534Z,97.46
2018-01-26T00:59:51.109Z,97.65
2018-01-26T01:00:31.671Z,97.36
2018-01-26T01:01:12.235Z,97.55
2018-01-26T01:01:52.828Z,97.55
2018-01-26T01:02:33.388Z,97.55
2018-01-26T01:03:14.000Z,97.27
2018-01-26T01:03:54.565Z,97.08
2018-01-26T01:04:35.138Z,97.17
2018-01-26T01:05:15.777Z,97.55
2018-01-26T01:05:56.338Z,97.55
2018-01-26T01:06:36.904Z,97.46
2018-01-26T01:07:17.491Z,97.36
2018-01-26T01:07:58.060Z,98.41
2018-01-26T01:08:38.673Z,97.46
2018-01-26T01:09:19.230Z,97.74
2018-01-26T01:09:59.894Z,97.65
2018-01-26T01:10:40.481Z,97.84
2018-01-26T01:11:21.051Z,97.74
2018-01-26T01:12:01.634Z,97.17
2018-01-26T01:12:42.217Z,97.36
2018-01-26T01:13:22.788Z,97.55
2018-01-26T01:14:03.354Z,97.36
2018-01-26T01:14:43.947Z,97.27
2018-01-26T01:15:24.546Z,97.46
2018-01-26T01:16:05.114Z,97.36
2018-01-26T01:16:45.673Z,97.27
2018-01-26T01:17:26.234Z,97.36
2018-01-26T01:18:06.813Z,97.46
2018-01-26T01:18:47.388Z,97.17
2018-01-26T01:19:27.964Z,96.98
2018-01-26T01:20:08.578Z,97.65
2018-01-26T01:20:49.132Z,97.27
2018-01-26T01:21:29.692Z,97.46
2018-01-26T01:22:10.262Z,97.36
2018-01-26T01:22:50.837Z,97.36
2018-01-26T01:23:31.405Z,96.98
2018-01-26T01:24:11.978Z,97.27
2018-01-26T01:24:52.581Z,96.98
2018-01-26T01:25:33.150Z,96.98
2018-01-26T01:26:13.729Z,97.08
2018-01-26T01:26:54.303Z,97.08
2018-01-26T01:27:34.888Z,97.65
2018-01-26T01:28:15.445Z,97.08
2018-01-26T01:28:56.051Z,96.98
2018-01-26T01:29:36.661Z,96.98
2018-01-26T01:30:17.217Z,97.17
2018-01-26T01:30:57.803Z,97.08
2018-01-26T01:31:38.357Z,97.27
2018-01-26T01:32:18.927Z,96.98
2018-01-26T01:32:59.497Z,96.98
2018-01-26T01:33:40.091Z,97.08
2018-01-26T01:34:20.653Z,97.65
2018-01-26T01:35:01.226Z,97.36
2018-01-26T01:35:41.785Z,97.46
2018-01-26T01:36:22.369Z,97.27
2018-01-26T01:37:02.937Z,97.17
2018-01-26T01:37:43.499Z,97.08
2018-01-26T01:38:24.075Z,97.17
2018-01-26T01:39:04.665Z,96.98
2018-01-26T01:39:45.246Z,96.98
2018-01-26T01:40:25.822Z,96.98
2018-01-26T01:41:06.512Z,96.98
2018-01-26T01:41:47.111Z,97.08
2018-01-26T01:42:27.663Z,97.08
2018-01-26T01:43:08.234Z,97.65
2018-01-26T01:43:48.805Z,97.74
2018-01-26T01:44:29.385Z,96.98
2018-01-26T01:45:09.951Z,97.17
2018-01-26T01:45:50.563Z,97.17
2018-01-26T01:46:31.154Z,97.08
2018-01-26T01:47:11.687Z,97.27
2018-01-26T01:47:52.279Z,97.36
2018-01-26T01:48:32.841Z,97.17
2018-01-26T01:49:13.415Z,97.17
2018-01-26T01:49:54.014Z,97.17
2018-01-26T01:50:34.603Z,97.36
2018-01-26T01:51:15.192Z,97.08
2018-01-26T01:51:55.797Z,97.17
2018-01-26T01:52:36.370Z,97.36
2018-01-26T01:53:16.973Z,97.17
2018-01-26T01:53:57.532Z,97.36
2018-01-26T01:54:38.081Z,97.46
2018-01-26T01:55:18.659Z,97.36
2018-01-26T01:55:59.242Z,96.41
2018-01-26T01:56:39.805Z,96.6
2018-01-26T01:57:20.382Z,96.7
2018-01-26T01:58:00.948Z,97.36
2018-01-26T01:58:41.559Z,97.17
2018-01-26T01:59:22.144Z,97.17
2018-01-26T02:00:02.720Z,97.27
2018-01-26T02:00:43.342Z,97.46
2018-01-26T02:01:23.894Z,97.17
2018-01-26T02:02:04.450Z,97.36
2018-01-26T02:02:45.014Z,97.36
2018-01-26T02:03:25.584Z,97.46
2018-01-26T02:04:06.213Z,97.46
2018-01-26T02:04:46.784Z,97.93
2018-01-26T02:05:27.365Z,97.84
2018-01-26T02:06:07.941Z,97.65
2018-01-26T02:06:48.529Z,97.84
2018-01-26T02:07:29.094Z,98.03
2018-01-26T02:08:09.662Z,97.55
2018-01-26T02:08:50.214Z,97.46
2018-01-26T02:09:30.776Z,97.36
2018-01-26T02:10:11.365Z,97.74
2018-01-26T02:10:51.958Z,97.84
2018-01-26T02:11:32.522Z,97.74
2018-01-26T02:12:13.081Z,97.84
2018-01-26T02:12:53.639Z,97.36
2018-01-26T02:13:34.210Z,97.84
2018-01-26T02:14:14.768Z,97.65
2018-01-26T02:14:55.356Z,97.74
2018-01-26T02:15:35.962Z,97.74
2018-01-26T02:16:16.535Z,97.74
2018-01-26T02:16:57.104Z,97.65
2018-01-26T02:17:37.676Z,97.93
2018-01-26T02:18:18.252Z,97.93
2018-01-26T02:18:58.818Z,96.98
2018-01-26T02:19:39.391Z,97.74
2018-01-26T02:20:19.974Z,97.93
2018-01-26T02:21:00.540Z,97.55
2018-01-26T02:21:41.102Z,97.65
2018-01-26T02:22:21.681Z,97.65
2018-01-26T02:23:02.239Z,97.65
2018-01-26T02:23:42.841Z,97.65
2018-01-26T02:24:23.427Z,97.84
2018-01-26T02:25:03.992Z,97.74
2018-01-26T02:25:44.554Z,97.84
2018-01-26T02:26:25.122Z,97.84
2018-01-26T02:27:05.688Z,97.46
2018-01-26T02:27:46.284Z,97.55
2018-01-26T02:28:26.877Z,97.46
2018-01-26T02:29:07.434Z,97.74
2018-01-26T02:29:47.999Z,97.84
2018-01-26T02:30:28.567Z,97.17
2018-01-26T02:31:09.143Z,96.98
2018-01-26T02:31:49.713Z,96.98
2018-01-26T02:32:30.280Z,97.17
2018-01-26T02:33:10.861Z,97.84
2018-01-26T02:33:51.427Z,97.74
2018-01-26T02:34:32.007Z,97.84
2018-01-26T02:35:12.575Z,98.03
2018-01-26T02:35:53.125Z,97.93
2018-01-26T02:36:33.694Z,97.93
2018-01-26T02:37:14.270Z,97.74
2018-01-26T02:37:54.844Z,97.74
2018-01-26T02:38:35.412Z,97.65
2018-01-26T02:39:15.968Z,97.84
2018-01-26T02:39:56.533Z,97.74
2018-01-26T02:40:37.104Z,97.93
2018-01-26T02:41:17.670Z,98.03
2018-01-26T02:41:58.231Z,97.55
2018-01-26T02:42:38.789Z,97.65
2018-01-26T02:43:19.346Z,97.84
2018-01-26T02:43:59.896Z,97.55
2018-01-26T02:44:40.482Z,97.74
2018-01-26T02:45:21.037Z,97.74
2018-01-26T02:46:01.623Z,97.84
2018-01-26T02:46:42.185Z,97.84
2018-01-26T02:47:22.770Z,97.84
2018-01-26T02:48:03.347Z,98.03
2018-01-26T02:48:43.910Z,97.93
2018-01-26T02:49:24.480Z,97.74
2018-01-26T02:50:05.583Z,97.84
2018-01-26T02:50:45.640Z,97.84
2018-01-26T02:51:26.186Z,97.84
2018-01-26T02:52:06.750Z,97.84
2018-01-26T02:52:47.304Z,97.93
2018-01-26T02:53:27.878Z,96.98
2018-01-26T02:54:08.465Z,97.36
2018-01-26T02:54:49.032Z,97.27
2018-01-26T02:55:29.588Z,97.36
2018-01-26T02:56:10.158Z,97.17
2018-01-26T02:56:50.722Z,97.65
2018-01-26T02:57:31.292Z,97.74
2018-01-26T02:58:11.858Z,97.36
2018-01-26T02:58:52.410Z,97.36
2018-01-26T02:59:32.979Z,97.46
2018-01-26T03:00:13.534Z,97.27
2018-01-26T03:00:54.091Z,97.36
2018-01-26T03:01:34.653Z,97.55
2018-01-26T03:02:15.213Z,97.46
2018-01-26T03:02:55.775Z,97.17
2018-01-26T03:03:36.339Z,97.65
2018-01-26T03:04:16.897Z,97.65
2018-01-26T03:04:57.459Z,97.46
2018-01-26T03:05:38.027Z,97.27
2018-01-26T03:06:18.600Z,97.74
2018-01-26T03:06:59.161Z,98.03
2018-01-26T03:07:39.755Z,97.93
2018-01-26T03:08:20.350Z,97.55
2018-01-26T03:09:00.916Z,97.74
2018-01-26T03:09:41.485Z,97.55
2018-01-26T03:10:22.052Z,98.03
2018-01-26T03:11:02.610Z,98.03
2018-01-26T03:11:43.189Z,98.22
2018-01-26T03:12:23.740Z,97.84
2018-01-26T03:13:04.303Z,98.03
2018-01-26T03:13:44.880Z,97.65
2018-01-26T03:14:25.477Z,97.46
2018-01-26T03:15:06.037Z,97.65
2018-01-26T03:15:46.638Z,97.55
2018-01-26T03:16:27.198Z,98.03
2018-01-26T03:17:07.783Z,97.46
2018-01-26T03:17:48.366Z,97.08
2018-01-26T03:18:28.934Z,97.17
2018-01-26T03:19:09.497Z,96.98
2018-01-26T03:19:50.073Z,97.55
2018-01-26T03:20:30.642Z,97.55
2018-01-26T03:21:11.253Z,97.46
2018-01-26T03:21:51.890Z,97.55
2018-01-26T03:22:32.459Z,97.55
2018-01-26T03:23:13.039Z,97.27
2018-01-26T03:23:53.606Z,97.27
2018-01-26T03:24:34.186Z,97.36
2018-01-26T03:25:14.746Z,97.93
2018-01-26T03:25:55.331Z,97.46
2018-01-26T03:26:35.896Z,98.03
2018-01-26T03:27:16.455Z,98.22
2018-01-26T03:27:57.023Z,97.36
2018-01-26T03:28:37.579Z,97.93
2018-01-26T03:29:18.144Z,97.46
2018-01-26T03:29:58.727Z,97.65
2018-01-26T03:30:39.310Z,97.74
2018-01-26T03:31:19.885Z,97.65
2018-01-26T03:32:00.464Z,97.84
2018-01-26T03:32:41.046Z,97.46
2018-01-26T03:33:21.643Z,98.22
2018-01-26T03:34:02.217Z,98.03
2018-01-26T03:34:42.806Z,97.46
2018-01-26T03:35:23.383Z,97.27
2018-01-26T03:36:03.955Z,97.55
2018-01-26T03:36:44.528Z,96.98
2018-01-26T03:37:25.104Z,96.98
2018-01-26T03:38:05.684Z,97.74
2018-01-26T03:38:46.235Z,97.17
2018-01-26T03:39:26.802Z,97.08
2018-01-26T03:40:07.393Z,96.98
2018-01-26T03:40:47.962Z,97.17
2018-01-26T03:41:28.525Z,97.65
2018-01-26T03:42:09.097Z,97.65
2018-01-26T03:42:49.650Z,97.55
2018-01-26T03:43:30.202Z,97.46
2018-01-26T03:44:10.786Z,97.55
2018-01-26T03:44:51.354Z,97.65
2018-01-26T03:45:31.930Z,97.17
2018-01-26T03:46:12.499Z,97.65
2018-01-26T03:46:53.069Z,97.27
2018-01-26T03:47:33.644Z,97.55
2018-01-26T03:48:14.218Z,97.27
2018-01-26T03:48:54.798Z,98.5
2018-01-26T03:49:35.366Z,98.13
2018-01-26T03:50:15.936Z,98.22
2018-01-26T03:50:56.502Z,97.84
2018-01-26T03:51:37.097Z,98.32
2018-01-26T03:52:17.672Z,98.32
2018-01-26T03:52:58.251Z,98.22
2018-01-26T03:53:38.831Z,98.41
2018-01-26T03:54:19.398Z,98.41
2018-01-26T03:54:59.962Z,98.41
2018-01-26T03:55:40.551Z,98.41
2018-01-26T03:56:21.142Z,98.13
2018-01-26T03:57:01.716Z,98.13
2018-01-26T03:57:42.298Z,98.32
2018-01-26T03:58:22.928Z,98.03
2018-01-26T03:59:03.505Z,97.84
2018-01-26T03:59:44.063Z,97.93
2018-01-26T04:00:24.640Z,97.93
2018-01-26T04:01:05.219Z,98.03
2018-01-26T04:01:45.773Z,97.93
2018-01-26T04:02:26.340Z,97.93
2018-01-26T04:03:06.917Z,98.03
2018-01-26T04:03:47.499Z,98.03
2018-01-26T04:04:28.084Z,98.03
2018-01-26T04:05:08.651Z,97.93
2018-01-26T04:05:49.205Z,98.13
2018-01-26T04:06:29.779Z,98.5
2018-01-26T04:07:10.371Z,98.5
2018-01-26T04:07:50.939Z,97.55
2018-01-26T04:08:31.505Z,97.36
2018-01-26T04:09:12.078Z,98.41
2018-01-26T04:09:52.676Z,98.22
2018-01-26T04:10:33.235Z,98.5
2018-01-26T04:11:13.838Z,98.5
2018-01-26T04:11:54.396Z,97.93
2018-01-26T04:12:34.975Z,97.93
2018-01-26T04:13:15.556Z,98.03
2018-01-26T04:13:56.204Z,98.41
2018-01-26T04:14:36.751Z,98.32
2018-01-26T04:15:17.352Z,98.03
2018-01-26T04:15:57.918Z,98.03
2018-01-26T04:16:38.503Z,98.79
2018-01-26T04:17:19.100Z,98.32
2018-01-26T04:17:59.828Z,98.03
2018-01-26T04:18:40.439Z,98.27
2018-01-26T04:19:21.015Z,98.22
2018-01-26T04:20:01.586Z,97.98
2018-01-26T04:20:42.204Z,98.65
2018-01-26T04:21:22.800Z,98.41
2018-01-26T04:22:03.366Z,98.32
2018-01-26T04:22:43.930Z,98.69
2018-01-26T04:23:24.486Z,98.83
2018-01-26T04:24:05.047Z,98.79
2018-01-26T04:24:45.613Z,98.79
2018-01-26T04:25:26.180Z,98.79
2018-01-26T04:26:06.739Z,98.32
2018-01-26T04:26:47.362Z,98.41
2018-01-26T04:27:27.931Z,98.41
2018-01-26T04:28:08.490Z,98.03
2018-01-26T04:28:49.061Z,98.32
2018-01-26T04:29:29.637Z,98.69
2018-01-26T04:30:10.197Z,98.17
2018-01-26T04:30:50.793Z,98.03
2018-01-26T04:31:31.373Z,98.17
2018-01-26T04:32:11.947Z,97.88
2018-01-26T04:32:52.517Z,97.41
2018-01-26T04:33:33.113Z,97.41
2018-01-26T04:34:13.680Z,97.79
2018-01-26T04:34:54.244Z,97.79
2018-01-26T04:35:34.821Z,97.93
2018-01-26T04:36:15.386Z,97.27
2018-01-26T04:36:55.951Z,97.46
2018-01-26T04:37:36.522Z,97.41
2018-01-26T04:38:17.099Z,97.74
2018-01-26T04:38:57.673Z,97.46
2018-01-26T04:39:38.224Z,97.46
2018-01-26T04:40:18.802Z,97.27
2018-01-26T04:40:59.356Z,97.41
2018-01-26T04:41:39.962Z,97.41
2018-01-26T04:42:20.523Z,97.17
2018-01-26T04:43:01.148Z,97.41
2018-01-26T04:43:41.711Z,96.98
2018-01-26T04:44:22.281Z,96.84
2018-01-26T04:45:02.865Z,96.98
2018-01-26T04:45:43.430Z,96.65
2018-01-26T04:46:24.000Z,96.94
2018-01-26T04:47:04.580Z,97.22
2018-01-26T04:47:45.151Z,96.98
2018-01-26T04:48:25.717Z,96.55
2018-01-26T04:49:06.270Z,96.74
2018-01-26T04:49:46.870Z,96.84
2018-01-26T04:50:27.440Z,96.84
2018-01-26T04:51:08.034Z,96.74
2018-01-26T04:51:48.628Z,96.84
2018-01-26T04:52:29.196Z,96.55
2018-01-26T04:53:09.750Z,96.74
2018-01-26T04:53:50.322Z,96.74
2018-01-26T04:54:30.886Z,97.13
2018-01-26T04:55:11.448Z,96.84
2018-01-26T04:55:52.039Z,96.74
2018-01-26T04:56:32.621Z,96.74
2018-01-26T04:57:13.220Z,96.46
2018-01-26T04:57:53.779Z,96.46
2018-01-26T04:58:34.360Z,96.84
2018-01-26T04:59:14.918Z,96.55
2018-01-26T04:59:55.486Z,96.36
2018-01-26T05:00:36.110Z,96.65
2018-01-26T05:01:16.622Z,96.94
2018-01-26T05:01:57.209Z,96.74
2018-01-26T05:02:37.780Z,96.84
2018-01-26T05:03:18.359Z,96.08
2018-01-26T05:03:58.928Z,96.36
2018-01-26T05:04:39.492Z,96.08
2018-01-26T05:05:20.053Z,95.89
2018-01-26T05:06:00.606Z,95.7
2018-01-26T05:06:41.183Z,95.7
2018-01-26T05:07:21.760Z,96.17
2018-01-26T05:08:02.325Z,96.36
2018-01-26T05:08:42.899Z,96.08
2018-01-26T05:09:23.473Z,96.17
2018-01-26T05:10:04.029Z,95.98
2018-01-26T05:10:44.583Z,95.7
2018-01-26T05:11:25.161Z,95.98
2018-01-26T05:12:05.721Z,96.26
2018-01-26T05:12:46.306Z,95.89
2018-01-26T05:13:26.861Z,96.08
2018-01-26T05:14:07.419Z,96.08
2018-01-26T05:14:47.984Z,95.51
2018-01-26T05:15:28.550Z,95.7
2018-01-26T05:16:09.121Z,95.98
2018-01-26T05:16:49.675Z,95.41
2018-01-26T05:17:30.242Z,95.7
2018-01-26T05:18:10.801Z,95.22
2018-01-26T05:18:51.376Z,95.51
2018-01-26T05:19:31.940Z,95.7
2018-01-26T05:20:12.502Z,95.51
2018-01-26T05:20:53.064Z,95.41
2018-01-26T05:21:33.617Z,95.41
2018-01-26T05:22:14.176Z,97.03
2018-01-26T05:22:54.735Z,97.5
2018-01-26T05:23:35.323Z,97.98
2018-01-26T05:24:15.895Z,98.22
2018-01-26T05:24:56.473Z,97.84
2018-01-26T05:25:37.042Z,96.98
2018-01-26T05:26:17.617Z,96.12
2018-01-26T05:26:58.191Z,95.94
2018-01-26T05:27:38.756Z,95.75
2018-01-26T05:28:19.336Z,94.74
2018-01-26T05:28:59.905Z,93.6
2018-01-26T05:29:40.467Z,91.79
2018-01-26T05:30:21.040Z,91.51
2018-01-26T05:31:01.612Z,91.31
2018-01-26T05:31:42.166Z,91.03
2018-01-26T05:32:22.729Z,91.27
2018-01-26T05:33:03.298Z,91.08
2018-01-26T05:33:43.871Z,90.8
2018-01-26T05:34:24.445Z,91.17
2018-01-26T05:35:05.026Z,91.17
2018-01-26T05:35:45.607Z,91.27
2018-01-26T05:36:26.184Z,90.61
2018-01-26T05:37:06.740Z,91.37
2018-01-26T05:37:47.305Z,91.56
2018-01-26T05:38:27.859Z,92.03
2018-01-26T05:39:08.460Z,91.42
2018-01-26T05:39:49.013Z,91.61
2018-01-26T05:40:29.576Z,92.03
2018-01-26T05:41:10.145Z,91.7
2018-01-26T05:41:50.786Z,91.7
2018-01-26T05:42:31.342Z,91.99
2018-01-26T05:43:11.925Z,92.36
2018-01-26T05:43:52.497Z,92.08
2018-01-26T05:44:33.060Z,92.46
2018-01-26T05:45:13.621Z,92.08
2018-01-26T05:45:54.183Z,92.65
2018-01-26T05:46:34.759Z,92.46
2018-01-26T05:47:15.336Z,92.65
2018-01-26T05:47:56.591Z,93.04
2018-01-26T05:48:37.205Z,93.23
2018-01-26T05:49:17.778Z,92.94
2018-01-26T05:49:58.360Z,93.7
2018-01-26T05:50:38.932Z,93.13
2018-01-26T05:51:19.489Z,93.6
2018-01-26T05:52:00.065Z,93.32
2018-01-26T05:52:40.654Z,93.23
2018-01-26T05:53:21.227Z,93.04
2018-01-26T05:54:01.860Z,92.94
2018-01-26T05:54:42.526Z,93.51
2018-01-26T05:55:23.122Z,93.41
2018-01-26T05:56:03.767Z,93.32
2018-01-26T05:56:44.317Z,93.23
2018-01-26T05:57:24.885Z,93.89
2018-01-26T05:58:05.461Z,94.37
2018-01-26T05:58:46.024Z,94.13
2018-01-26T05:59:26.650Z,93.98
2018-01-26T06:00:07.250Z,94.18
2018-01-26T06:00:47.824Z,93.79
2018-01-26T06:01:28.385Z,94.32
2018-01-26T06:02:08.951Z,94.32
2018-01-26T06:02:49.513Z,93.79
2018-01-26T06:03:30.083Z,93.7
2018-01-26T06:04:10.645Z,93.7
2018-01-26T06:04:51.226Z,93.84
2018-01-26T06:05:31.804Z,93.75
2018-01-26T06:06:12.362Z,94.37
2018-01-26T06:06:52.951Z,94.32
2018-01-26T06:07:33.534Z,94.18
2018-01-26T06:08:14.102Z,94.18
2018-01-26T06:08:54.659Z,94.13
2018-01-26T06:09:35.241Z,94.32
2018-01-26T06:10:15.808Z,94.13
2018-01-26T06:10:56.397Z,94.51
2018-01-26T06:11:36.991Z,94.51
2018-01-26T06:12:17.593Z,94.22
2018-01-26T06:12:58.120Z,94.22
2018-01-26T06:13:38.680Z,94.03
2018-01-26T06:14:19.238Z,94.13
2018-01-26T06:14:59.800Z,94.03
2018-01-26T06:15:40.366Z,94.32
2018-01-26T06:16:20.940Z,94.03
2018-01-26T06:17:01.533Z,94.13
2018-01-26T06:17:42.154Z,94.13
2018-01-26T06:18:22.719Z,93.84
2018-01-26T06:19:03.303Z,94.22
2018-01-26T06:19:43.868Z,94.79
2018-01-26T06:20:24.441Z,94.51
2018-01-26T06:21:05.021Z,94.51
2018-01-26T06:21:45.608Z,94.98
2018-01-26T06:22:26.164Z,95.08
2018-01-26T06:23:06.720Z,95.17
2018-01-26T06:23:47.290Z,94.7
2018-01-26T06:24:27.839Z,94.89
2018-01-26T06:25:08.407Z,94.98
2018-01-26T06:25:48.971Z,94.98
2018-01-26T06:26:29.527Z,94.6
2018-01-26T06:28:42.340Z,94.89
2018-01-26T06:29:22.898Z,95.17
2018-01-26T06:30:03.460Z,94.89
2018-01-26T06:30:44.020Z,94.89
2018-01-26T06:31:24.602Z,94.89
2018-01-26T06:32:05.164Z,94.89
2018-01-26T06:32:46.995Z,94.7
2018-01-26T06:33:27.561Z,94.89
2018-01-26T06:34:12.525Z,94.89
2018-01-26T06:34:53.089Z,94.98
2018-01-26T06:35:33.681Z,94.98
2018-01-26T06:36:14.322Z,94.89
2018-01-26T06:36:54.818Z,94.89
2018-01-26T06:37:35.383Z,94.98
2018-01-26T06:38:15.974Z,94.89
2018-01-26T06:38:56.542Z,94.89
2018-01-26T06:39:37.110Z,94.51
2018-01-26T06:40:17.672Z,94.89
2018-01-26T06:40:58.338Z,94.79
2018-01-26T06:41:38.897Z,94.7
2018-01-26T06:42:19.450Z,95.27
2018-01-26T06:43:00.008Z,95.46
2018-01-26T06:43:40.572Z,95.56
2018-01-26T06:44:21.137Z,95.46
2018-01-26T06:45:01.718Z,95.65
2018-01-26T06:45:42.284Z,95.75
2018-01-26T06:46:22.840Z,95.84
2018-01-26T06:47:03.471Z,95.36
2018-01-26T06:47:44.054Z,95.36
2018-01-26T06:48:24.612Z,95.46
2018-01-26T06:49:05.174Z,95.27
2018-01-26T06:49:45.740Z,95.27
2018-01-26T06:50:26.296Z,95.65
2018-01-26T06:51:06.847Z,95.65
2018-01-26T06:51:47.413Z,95.65
2018-01-26T06:52:27.970Z,95.65
2018-01-26T06:53:08.532Z,95.65
2018-01-26T06:53:49.103Z,95.27
2018-01-26T06:54:29.666Z,95.27
2018-01-26T06:55:10.317Z,95.27
2018-01-26T06:55:50.901Z,95.17
2018-01-26T06:56:31.575Z,95.17
2018-01-26T06:57:12.570Z,94.98
2018-01-26T06:57:53.189Z,94.89
2018-01-26T06:58:33.769Z,95.08
2018-01-26T06:59:14.332Z,94.7
2018-01-26T06:59:55.291Z,94.79
2018-01-26T07:00:35.878Z,94.98
2018-01-26T07:01:16.440Z,94.79
2018-01-26T07:01:56.999Z,94.79
2018-01-26T07:02:37.564Z,95.17
2018-01-26T07:03:18.130Z,94.98
2018-01-26T07:03:58.692Z,94.89
2018-01-26T07:04:39.256Z,94.89
2018-01-26T07:05:19.827Z,95.27
2018-01-26T07:06:00.405Z,94.98
2018-01-26T07:06:40.969Z,94.79
2018-01-26T07:07:21.601Z,94.51
2018-01-26T07:08:02.311Z,94.79
2018-01-26T07:08:42.875Z,94.7
2018-01-26T07:09:23.460Z,94.7
2018-01-26T07:10:04.027Z,95.17
2018-01-26T07:10:44.636Z,94.89
2018-01-26T07:11:25.225Z,94.6
2018-01-26T07:12:05.828Z,94.7
2018-01-26T07:12:46.372Z,94.03
2018-01-26T07:13:26.949Z,94.22
2018-01-26T07:14:07.586Z,93.94
2018-01-26T07:14:48.164Z,94.03
2018-01-26T07:15:28.731Z,94.32
2018-01-26T07:16:09.345Z,94.13
2018-01-26T07:16:49.913Z,94.27
2018-01-26T07:17:30.502Z,93.94
2018-01-26T07:18:11.100Z,94.22
2018-01-26T07:18:56.357Z,94.18
2018-01-26T07:19:54.150Z,94.03
2018-01-26T07:20:35.149Z,94.18
2018-01-26T07:21:15.735Z,94.03
2018-01-26T07:21:56.408Z,94.18
2018-01-26T07:22:37.018Z,93.99
2018-01-26T07:23:17.586Z,94.08
2018-01-26T07:23:58.147Z,94.08
2018-01-26T07:24:38.706Z,94.32
2018-01-26T07:25:19.310Z,94.65
2018-01-26T07:25:59.908Z,94.37
2018-01-26T07:26:40.493Z,94.42
2018-01-26T07:27:21.044Z,94.42
2018-01-26T07:28:01.639Z,94.42
2018-01-26T07:28:42.212Z,94.27
2018-01-26T07:29:22.822Z,94.51
2018-01-26T07:30:03.383Z,94.6
2018-01-26T07:30:43.981Z,94.56
2018-01-26T07:31:24.554Z,94.79
2018-01-26T07:32:05.204Z,94.7
2018-01-26T07:32:45.994Z,94.89
2018-01-26T07:33:26.521Z,94.32
2018-01-26T07:34:07.082Z,94.32
2018-01-26T07:34:47.661Z,94.32
2018-01-26T07:35:28.250Z,94.22
2018-01-26T07:36:08.949Z,94.13
2018-01-26T07:36:49.512Z,94.22
2018-01-26T07:37:30.135Z,94.13
2018-01-26T07:38:10.728Z,94.51
2018-01-26T07:38:51.296Z,94.22
2018-01-26T07:39:31.863Z,94.08
2018-01-26T07:40:12.452Z,93.75
2018-01-26T07:40:53.049Z,94.13
2018-01-26T07:41:33.621Z,94.22
2018-01-26T07:42:14.200Z,94.13
2018-01-26T07:42:54.769Z,94.13
2018-01-26T07:43:35.386Z,94.22
2018-01-26T07:44:15.934Z,94.32
2018-01-26T07:44:56.493Z,94.37
2018-01-26T07:45:37.127Z,94.13
2018-01-26T07:46:17.693Z,94.22
2018-01-26T07:46:58.282Z,94.22
2018-01-26T07:47:38.846Z,94.32
2018-01-26T07:48:19.442Z,94.42
2018-01-26T07:49:00.915Z,94.42
2018-01-26T07:49:41.485Z,94.13
2018-01-26T07:50:22.066Z,94.08
2018-01-26T07:51:02.808Z,94.46
2018-01-26T07:51:43.549Z,93.84
2018-01-26T07:52:24.145Z,93.84
2018-01-26T07:53:04.794Z,94.13
2018-01-26T07:55:22.654Z,93.27
2018-01-26T07:56:03.219Z,93.94
2018-01-26T07:56:43.795Z,93.84
2018-01-26T07:57:24.368Z,93.75
2018-01-26T07:58:04.958Z,93.84
2018-01-26T07:58:45.956Z,93.84
2018-01-26T07:59:26.512Z,94.13
2018-01-26T08:00:07.070Z,94.13
2018-01-26T08:00:47.632Z,94.32
2018-01-26T08:01:28.296Z,94.27
2018-01-26T08:02:08.857Z,94.22
2018-01-26T08:02:49.448Z,94.13
2018-01-26T08:03:30.018Z,94.51
2018-01-26T08:04:10.574Z,93.23
2018-01-26T08:04:51.192Z,93.55
2018-01-26T08:05:31.754Z,93.32
2018-01-26T08:06:12.340Z,93.51
2018-01-26T08:06:52.941Z,93.41
2018-01-26T08:07:34.146Z,93.46
2018-01-26T08:08:14.720Z,93.41
2018-01-26T08:08:55.276Z,93.41
2018-01-26T08:09:35.840Z,93.41
2018-01-26T08:10:16.410Z,93.41
2018-01-26T08:10:56.999Z,93.23
2018-01-26T08:11:37.553Z,93.41
2018-01-26T08:12:18.119Z,93.6
2018-01-26T08:12:58.671Z,94.46
2018-01-26T08:13:39.223Z,93.99
2018-01-26T08:14:19.796Z,94.18
2018-01-26T08:15:00.369Z,94.08
2018-01-26T08:15:40.989Z,94.08
2018-01-26T08:16:21.571Z,94.27
2018-01-26T08:17:02.183Z,94.37
2018-01-26T08:17:42.732Z,94.46
2018-01-26T08:18:23.345Z,94.74
2018-01-26T08:19:03.890Z,94.56
2018-01-26T08:19:44.453Z,94.6
2018-01-26T08:20:25.004Z,94.7
2018-01-26T08:21:05.586Z,94.37
2018-01-26T08:21:46.174Z,94.42
2018-01-26T08:22:26.747Z,94.08
2018-01-26T08:23:07.306Z,94.22
2018-01-26T08:23:47.867Z,94.08
2018-01-26T08:24:28.425Z,93.55
2018-01-26T08:25:08.993Z,93.7
2018-01-26T08:25:49.559Z,93.99
2018-01-26T08:26:30.754Z,93.27
2018-01-26T08:27:11.387Z,93.37
2018-01-26T08:27:51.981Z,93.41
2018-01-26T08:28:32.552Z,93.46
2018-01-26T08:29:13.172Z,93.41
2018-01-26T08:29:53.737Z,93.46
2018-01-26T08:30:34.301Z,93.37
2018-01-26T08:31:14.881Z,93.46
2018-01-26T08:31:55.444Z,93.41
2018-01-26T08:32:36.014Z,93.27
2018-01-26T08:33:16.578Z,93.04
2018-01-26T08:33:57.188Z,93.23
2018-01-26T08:34:37.784Z,93.13
2018-01-26T08:35:18.347Z,93.13
2018-01-26T08:35:58.905Z,92.94
2018-01-26T08:36:39.484Z,93.04
2018-01-26T08:37:20.046Z,92.94
2018-01-26T08:38:00.633Z,92.94
2018-01-26T08:38:41.244Z,92.94
2018-01-26T08:39:21.805Z,93.23
2018-01-26T08:40:02.384Z,93.32
2018-01-26T08:40:42.952Z,93.32
2018-01-26T08:41:23.517Z,93.32
2018-01-26T08:42:04.076Z,93.32
2018-01-26T08:42:44.637Z,93.04
2018-01-26T08:43:25.198Z,93.41
2018-01-26T08:44:05.754Z,93.7
2018-01-26T08:44:46.328Z,93.79
2018-01-26T08:45:26.923Z,93.79
2018-01-26T08:46:07.468Z,93.99
2018-01-26T08:46:48.189Z,93.79